Wetterdaten: Woche 09.01.12 - 15.01.12 (KW2)
Datum Zeit Temp. Innen Temp. Aussen UV X Diff Temp. Feuchte Inne Feuchte Auss Sonnenschein Luftdruck Regen ab 0,1 Wind Sonnenschein T Regendauer Windben
09.01.2012 00:00 13,9 C 5,7 C 0,0 UV-I 0,0 C 57 % 91 % 0 % 1026,2 hPa 0,0 l/m 3,3 km/h (1 Bft) 0,00 h 0,00 h 7,3 km/h (2 Bft)
09.01.2012 01:00 14,0 C 5,6 C 0,0 UV-I 0,0 C 57 % 91 % 0 % 1026,5 hPa 0,0 l/m 1,2 km/h (1 Bft) 0,00 h 0,00 h 4,3 km/h (1 Bft)
09.01.2012 02:00 14,0 C 5,6 C 0,0 UV-I 0,0 C 57 % 91 % 0 % 1026,9 hPa 0,0 l/m 1,1 km/h (1 Bft) 0,00 h 0,00 h 4,0 km/h (1 Bft)
09.01.2012 03:00 13,8 C 5,6 C 0,0 UV-I 0,0 C 57 % 92 % 0 % 1026,6 hPa 0,0 l/m 1,1 km/h (1 Bft) 0,00 h 0,00 h 3,1 km/h (1 Bft)
09.01.2012 04:00 13,9 C 5,7 C 0,0 UV-I 0,0 C 57 % 92 % 0 % 1026,5 hPa 0,4 l/m 1,3 km/h (1 Bft) 0,00 h 0,73 h 4,6 km/h (1 Bft)
09.01.2012 05:00 13,9 C 5,8 C 0,0 UV-I 0,0 C 58 % 92 % 0 % 1026,2 hPa 0,4 l/m 1,4 km/h (1 Bft) 0,00 h 0,60 h 4,2 km/h (1 Bft)
09.01.2012 06:00 13,9 C 6,0 C 0,0 UV-I 0,0 C 58 % 93 % 0 % 1025,7 hPa 0,5 l/m 2,3 km/h (1 Bft) 0,00 h 0,93 h 5,6 km/h (1 Bft)
09.01.2012 07:00 13,9 C 6,3 C 0,0 UV-I 0,0 C 59 % 93 % 0 % 1025,4 hPa 0,2 l/m 3,9 km/h (1 Bft) 0,00 h 0,40 h 8,3 km/h (2 Bft)
09.01.2012 08:00 13,9 C 6,6 C 0,0 UV-I 0,0 C 59 % 94 % 0 % 1025,8 hPa 0,1 l/m 5,4 km/h (1 Bft) 0,00 h 0,40 h 12,3 km/h (3 Bft)
09.01.2012 09:00 13,9 C 7,0 C 0,0 UV-I 0,0 C 60 % 94 % 0 % 1026,3 hPa 0,0 l/m 5,1 km/h (1 Bft) 0,00 h 0,00 h 9,7 km/h (2 Bft)
09.01.2012 10:00 14,0 C 7,4 C 0,0 UV-I 0,0 C 61 % 94 % 0 % 1026,7 hPa 0,0 l/m 4,6 km/h (1 Bft) 0,00 h 0,00 h 9,2 km/h (2 Bft)
09.01.2012 11:00 14,1 C 7,9 C 0,0 UV-I 0,0 C 61 % 94 % 0 % 1027,0 hPa 0,0 l/m 3,3 km/h (1 Bft) 0,00 h 0,00 h 7,2 km/h (2 Bft)
09.01.2012 12:00 14,3 C 8,4 C 0,0 UV-I 0,0 C 61 % 94 % 0 % 1026,8 hPa 0,0 l/m 6,0 km/h (2 Bft) 0,00 h 0,00 h 12,1 km/h (2 Bft)
09.01.2012 13:00 14,4 C 8,5 C 0,0 UV-I 0,0 C 61 % 93 % 0 % 1026,7 hPa 0,0 l/m 4,6 km/h (1 Bft) 0,00 h 0,00 h 9,9 km/h (2 Bft)
09.01.2012 14:00 14,4 C 8,7 C 0,0 UV-I 0,0 C 61 % 93 % 0 % 1026,9 hPa 0,0 l/m 3,7 km/h (1 Bft) 0,00 h 0,13 h 8,2 km/h (2 Bft)
09.01.2012 15:00 14,6 C 8,9 C 0,0 UV-I 0,0 C 61 % 92 % 0 % 1026,7 hPa 0,0 l/m 4,1 km/h (1 Bft) 0,00 h 0,10 h 6,8 km/h (2 Bft)
09.01.2012 16:00 14,5 C 8,8 C 0,0 UV-I 0,0 C 61 % 91 % 0 % 1027,0 hPa 0,0 l/m 4,1 km/h (1 Bft) 0,00 h 0,00 h 7,8 km/h (2 Bft)
09.01.2012 17:00 14,4 C 8,8 C 0,0 UV-I 0,0 C 60 % 89 % 0 % 1027,3 hPa 0,0 l/m 5,1 km/h (1 Bft) 0,00 h 0,00 h 9,7 km/h (2 Bft)
09.01.2012 18:00 14,3 C 8,7 C 0,0 UV-I 0,0 C 60 % 88 % 0 % 1027,7 hPa 0,0 l/m 4,1 km/h (1 Bft) 0,00 h 0,00 h 9,0 km/h (2 Bft)
09.01.2012 19:00 14,4 C 8,8 C 0,0 UV-I 0,0 C 60 % 88 % 0 % 1028,0 hPa 0,0 l/m 5,8 km/h (2 Bft) 0,00 h 0,00 h 10,2 km/h (2 Bft)
09.01.2012 20:00 14,4 C 8,4 C 0,0 UV-I 0,0 C 61 % 90 % 0 % 1028,4 hPa 0,0 l/m 5,7 km/h (1 Bft) 0,00 h 0,10 h 10,2 km/h (2 Bft)
09.01.2012 21:00 14,5 C 8,4 C 0,0 UV-I 0,0 C 62 % 92 % 0 % 1028,9 hPa 0,1 l/m 4,5 km/h (1 Bft) 0,00 h 0,27 h 9,3 km/h (2 Bft)
09.01.2012 22:00 14,6 C 8,4 C 0,0 UV-I 0,0 C 62 % 93 % 0 % 1029,3 hPa 0,0 l/m 2,9 km/h (1 Bft) 0,00 h 0,00 h 7,2 km/h (2 Bft)
09.01.2012 23:00 14,6 C 8,6 C 0,0 UV-I 0,0 C 62 % 93 % 0 % 1030,0 hPa 0,0 l/m 3,9 km/h (1 Bft) 0,00 h 0,00 h 9,5 km/h (2 Bft)
10.01.2012 00:00 14,7 C 8,5 C 0,0 UV-I 0,0 C 62 % 93 % 0 % 1030,3 hPa 0,0 l/m 2,3 km/h (1 Bft) 0,00 h 0,00 h 6,8 km/h (2 Bft)
10.01.2012 01:00 14,7 C 8,3 C 0,0 UV-I 0,0 C 62 % 92 % 0 % 1030,6 hPa 0,0 l/m 2,3 km/h (1 Bft) 0,00 h 0,00 h 4,1 km/h (1 Bft)
10.01.2012 02:00 14,7 C 8,1 C 0,0 UV-I 0,0 C 62 % 93 % 0 % 1031,1 hPa 0,0 l/m 1,3 km/h (1 Bft) 0,00 h 0,00 h 3,9 km/h (1 Bft)
10.01.2012 03:00 14,6 C 7,9 C 0,0 UV-I 0,0 C 62 % 93 % 0 % 1031,5 hPa 0,0 l/m 1,3 km/h (1 Bft) 0,00 h 0,00 h 3,0 km/h (1 Bft)
10.01.2012 04:00 14,7 C 7,5 C 0,0 UV-I 0,0 C 62 % 93 % 0 % 1031,7 hPa 0,0 l/m 1,0 km/h (0 Bft) 0,00 h 0,00 h 3,4 km/h (1 Bft)
10.01.2012 05:00 14,7 C 7,4 C 0,0 UV-I 0,0 C 62 % 93 % 0 % 1032,1 hPa 0,0 l/m 0,6 km/h (0 Bft) 0,00 h 0,00 h 1,2 km/h (1 Bft)
10.01.2012 06:00 14,6 C 6,4 C 0,0 UV-I 0,0 C 61 % 92 % 0 % 1032,1 hPa 0,0 l/m 0,0 km/h (0 Bft) 0,00 h 0,00 h 0,0 km/h (0 Bft)
10.01.2012 07:00 14,4 C 6,0 C 0,0 UV-I 0,0 C 61 % 94 % 0 % 1032,1 hPa 0,0 l/m 0,6 km/h (0 Bft) 0,00 h 0,00 h 2,2 km/h (1 Bft)
10.01.2012 08:00 14,4 C 6,4 C 0,0 UV-I 0,0 C 61 % 94 % 0 % 1033,0 hPa 0,0 l/m 2,6 km/h (1 Bft) 0,00 h 0,00 h 7,5 km/h (2 Bft)
10.01.2012 09:00 14,4 C 6,6 C 0,0 UV-I 0,0 C 61 % 94 % 0 % 1033,5 hPa 0,0 l/m 2,3 km/h (1 Bft) 0,00 h 0,00 h 6,4 km/h (2 Bft)
10.01.2012 10:00 14,6 C 7,1 C 0,0 UV-I 0,1 C 61 % 94 % 2 % 1033,7 hPa 0,0 l/m 1,7 km/h (1 Bft) 0,00 h 0,00 h 4,3 km/h (1 Bft)
10.01.2012 11:00 14,8 C 7,9 C 0,2 UV-I 2,0 C 60 % 94 % 46 % 1033,9 hPa 0,0 l/m 2,7 km/h (1 Bft) 0,40 h 0,00 h 6,4 km/h (2 Bft)
10.01.2012 12:00 15,0 C 8,8 C 0,3 UV-I 2,1 C 59 % 89 % 49 % 1033,6 hPa 0,0 l/m 4,2 km/h (1 Bft) 0,33 h 0,00 h 8,5 km/h (2 Bft)
10.01.2012 13:00 15,1 C 9,6 C 0,2 UV-I 3,3 C 58 % 83 % 77 % 1033,4 hPa 0,0 l/m 6,5 km/h (2 Bft) 0,67 h 0,00 h 12,3 km/h (3 Bft)
10.01.2012 14:00 15,1 C 9,5 C 0,0 UV-I 0,2 C 56 % 79 % 6 % 1033,5 hPa 0,0 l/m 4,2 km/h (1 Bft) 0,00 h 0,00 h 7,9 km/h (2 Bft)
10.01.2012 15:00 15,2 C 9,3 C 0,0 UV-I 0,0 C 56 % 78 % 0 % 1033,5 hPa 0,0 l/m 2,2 km/h (1 Bft) 0,00 h 0,00 h 5,3 km/h (1 Bft)
10.01.2012 16:00 15,1 C 9,2 C 0,0 UV-I 0,0 C 56 % 77 % 0 % 1033,5 hPa 0,0 l/m 1,2 km/h (1 Bft) 0,00 h 0,00 h 3,8 km/h (1 Bft)
10.01.2012 17:00 15,0 C 9,0 C 0,0 UV-I 0,0 C 55 % 76 % 0 % 1033,7 hPa 0,0 l/m 1,5 km/h (1 Bft) 0,00 h 0,00 h 3,4 km/h (1 Bft)
10.01.2012 18:00 15,0 C 8,9 C 0,0 UV-I 0,0 C 55 % 76 % 0 % 1033,5 hPa 0,0 l/m 1,7 km/h (1 Bft) 0,00 h 0,00 h 4,8 km/h (1 Bft)
10.01.2012 19:00 15,0 C 8,9 C 0,0 UV-I 0,0 C 55 % 78 % 0 % 1033,7 hPa 0,0 l/m 2,4 km/h (1 Bft) 0,00 h 0,03 h 4,4 km/h (1 Bft)
10.01.2012 20:00 15,0 C 8,9 C 0,0 UV-I 0,0 C 55 % 79 % 0 % 1033,6 hPa 0,0 l/m 2,2 km/h (1 Bft) 0,00 h 0,00 h 5,1 km/h (1 Bft)
10.01.2012 21:00 15,0 C 8,8 C 0,0 UV-I 0,0 C 56 % 82 % 0 % 1033,4 hPa 0,0 l/m 1,2 km/h (1 Bft) 0,00 h 0,00 h 4,4 km/h (1 Bft)
10.01.2012 22:00 15,0 C 8,7 C 0,0 UV-I 0,0 C 57 % 84 % 0 % 1033,1 hPa 0,0 l/m 1,1 km/h (1 Bft) 0,00 h 0,00 h 2,4 km/h (1 Bft)
10.01.2012 23:00 14,9 C 8,8 C 0,0 UV-I 0,0 C 58 % 87 % 0 % 1033,0 hPa 0,0 l/m 2,7 km/h (1 Bft) 0,00 h 0,00 h 6,5 km/h (2 Bft)
11.01.2012 00:00 15,0 C 8,9 C 0,0 UV-I 0,0 C 59 % 87 % 0 % 1033,0 hPa 0,0 l/m 1,8 km/h (1 Bft) 0,00 h 0,00 h 5,7 km/h (1 Bft)
11.01.2012 01:00 15,0 C 9,0 C 0,0 UV-I 0,0 C 58 % 85 % 0 % 1032,9 hPa 0,0 l/m 2,3 km/h (1 Bft) 0,00 h 0,00 h 6,6 km/h (2 Bft)
11.01.2012 02:00 15,0 C 8,8 C 0,0 UV-I 0,0 C 58 % 85 % 0 % 1032,3 hPa 0,0 l/m 2,3 km/h (1 Bft) 0,00 h 0,00 h 6,0 km/h (2 Bft)
11.01.2012 03:00 15,0 C 8,8 C 0,0 UV-I 0,0 C 58 % 84 % 0 % 1032,5 hPa 0,0 l/m 2,0 km/h (1 Bft) 0,00 h 0,00 h 6,0 km/h (2 Bft)
11.01.2012 04:00 15,1 C 8,9 C 0,0 UV-I 0,0 C 57 % 84 % 0 % 1032,3 hPa 0,0 l/m 3,0 km/h (1 Bft) 0,00 h 0,00 h 7,7 km/h (2 Bft)
11.01.2012 05:00 15,1 C 8,8 C 0,0 UV-I 0,0 C 57 % 84 % 0 % 1032,2 hPa 0,0 l/m 4,0 km/h (1 Bft) 0,00 h 0,00 h 7,9 km/h (2 Bft)
11.01.2012 06:00 15,1 C 8,8 C 0,0 UV-I 0,0 C 57 % 84 % 0 % 1032,1 hPa 0,0 l/m 2,3 km/h (1 Bft) 0,00 h 0,00 h 5,9 km/h (2 Bft)
11.01.2012 07:00 15,1 C 8,7 C 0,0 UV-I 0,0 C 57 % 84 % 0 % 1032,3 hPa 0,0 l/m 3,3 km/h (1 Bft) 0,00 h 0,00 h 7,0 km/h (2 Bft)
11.01.2012 08:00 15,1 C 8,7 C 0,0 UV-I 0,0 C 57 % 85 % 0 % 1032,5 hPa 0,0 l/m 4,4 km/h (1 Bft) 0,00 h 0,00 h 9,6 km/h (2 Bft)
11.01.2012 09:00 15,1 C 8,7 C 0,0 UV-I 0,0 C 58 % 86 % 0 % 1033,0 hPa 0,0 l/m 4,7 km/h (1 Bft) 0,00 h 0,00 h 10,1 km/h (2 Bft)
11.01.2012 10:00 15,2 C 8,7 C 0,0 UV-I 0,5 C 58 % 87 % 15 % 1033,5 hPa 0,0 l/m 4,3 km/h (1 Bft) 0,00 h 0,00 h 7,1 km/h (2 Bft)
11.01.2012 11:00 15,2 C 9,3 C 0,2 UV-I 2,9 C 58 % 85 % 83 % 1033,6 hPa 0,0 l/m 7,5 km/h (2 Bft) 0,90 h 0,00 h 12,9 km/h (3 Bft)
11.01.2012 12:00 15,5 C 9,9 C 0,1 UV-I 1,4 C 57 % 82 % 39 % 1033,6 hPa 0,0 l/m 8,0 km/h (2 Bft) 0,17 h 0,00 h 13,4 km/h (3 Bft)
11.01.2012 13:00 15,6 C 10,0 C 0,0 UV-I 0,4 C 56 % 80 % 11 % 1032,9 hPa 0,0 l/m 8,2 km/h (2 Bft) 0,00 h 0,00 h 13,8 km/h (3 Bft)
11.01.2012 14:00 15,5 C 9,8 C 0,0 UV-I 0,0 C 56 % 82 % 1 % 1032,7 hPa 0,0 l/m 5,7 km/h (1 Bft) 0,00 h 0,00 h 10,7 km/h (2 Bft)
11.01.2012 15:00 15,4 C 9,7 C 0,0 UV-I 0,0 C 57 % 83 % 0 % 1032,6 hPa 0,0 l/m 6,9 km/h (2 Bft) 0,00 h 0,00 h 12,9 km/h (3 Bft)
11.01.2012 16:00 15,4 C 9,6 C 0,0 UV-I 0,0 C 57 % 83 % 0 % 1032,8 hPa 0,0 l/m 6,2 km/h (2 Bft) 0,00 h 0,00 h 12,9 km/h (3 Bft)
11.01.2012 17:00 15,3 C 9,3 C 0,0 UV-I 0,0 C 58 % 85 % 0 % 1033,1 hPa 0,0 l/m 3,9 km/h (1 Bft) 0,00 h 0,00 h 7,6 km/h (2 Bft)
11.01.2012 18:00 15,4 C 9,2 C 0,0 UV-I 0,0 C 58 % 85 % 0 % 1033,2 hPa 0,0 l/m 3,3 km/h (1 Bft) 0,00 h 0,00 h 8,0 km/h (2 Bft)
11.01.2012 19:00 15,4 C 9,1 C 0,0 UV-I 0,0 C 58 % 87 % 0 % 1033,0 hPa 0,0 l/m 4,5 km/h (1 Bft) 0,00 h 0,00 h 8,2 km/h (2 Bft)
11.01.2012 20:00 15,4 C 8,9 C 0,0 UV-I 0,0 C 59 % 88 % 0 % 1032,8 hPa 0,0 l/m 2,2 km/h (1 Bft) 0,00 h 0,00 h 5,8 km/h (2 Bft)
11.01.2012 21:00 15,4 C 9,3 C 0,0 UV-I 0,0 C 59 % 87 % 0 % 1032,4 hPa 0,0 l/m 5,1 km/h (1 Bft) 0,00 h 0,00 h 10,0 km/h (2 Bft)
11.01.2012 22:00 15,4 C 9,5 C 0,0 UV-I 0,0 C 59 % 86 % 0 % 1032,2 hPa 0,0 l/m 4,7 km/h (1 Bft) 0,00 h 0,00 h 9,9 km/h (2 Bft)
11.01.2012 23:00 15,4 C 9,5 C 0,0 UV-I 0,0 C 59 % 86 % 0 % 1031,8 hPa 0,0 l/m 5,7 km/h (1 Bft) 0,00 h 0,00 h 8,6 km/h (2 Bft)
12.01.2012 00:00 15,4 C 9,3 C 0,0 UV-I 0,0 C 59 % 87 % 0 % 1032,0 hPa 0,0 l/m 4,8 km/h (1 Bft) 0,00 h 0,00 h 10,1 km/h (2 Bft)
12.01.2012 01:00 15,3 C 9,2 C 0,0 UV-I 0,0 C 59 % 87 % 0 % 1030,6 hPa 0,0 l/m 5,7 km/h (1 Bft) 0,00 h 0,00 h 11,0 km/h (2 Bft)
12.01.2012 02:00 15,4 C 9,2 C 0,0 UV-I 0,0 C 58 % 86 % 0 % 1030,0 hPa 0,0 l/m 8,8 km/h (2 Bft) 0,00 h 0,00 h 15,2 km/h (3 Bft)
12.01.2012 03:00 15,4 C 8,9 C 0,0 UV-I 0,0 C 58 % 86 % 0 % 1029,5 hPa 0,0 l/m 9,1 km/h (2 Bft) 0,00 h 0,00 h 15,2 km/h (3 Bft)
12.01.2012 04:00 15,4 C 8,5 C 0,0 UV-I 0,0 C 57 % 87 % 0 % 1028,4 hPa 0,0 l/m 10,8 km/h (2 Bft) 0,00 h 0,00 h 17,4 km/h (3 Bft)
12.01.2012 05:00 15,4 C 8,3 C 0,0 UV-I 0,0 C 57 % 87 % 0 % 1027,4 hPa 0,0 l/m 11,8 km/h (2 Bft) 0,00 h 0,03 h 18,9 km/h (3 Bft)
12.01.2012 06:00 15,3 C 8,0 C 0,0 UV-I 0,0 C 57 % 88 % 0 % 1027,0 hPa 0,0 l/m 12,7 km/h (3 Bft) 0,00 h 0,03 h 21,1 km/h (4 Bft)
12.01.2012 07:00 15,2 C 8,0 C 0,0 UV-I 0,0 C 57 % 89 % 0 % 1025,8 hPa 0,0 l/m 11,6 km/h (2 Bft) 0,00 h 0,07 h 18,0 km/h (3 Bft)
12.01.2012 08:00 15,1 C 8,0 C 0,0 UV-I 0,0 C 57 % 88 % 0 % 1025,2 hPa 0,0 l/m 10,1 km/h (2 Bft) 0,00 h 0,00 h 18,4 km/h (3 Bft)
12.01.2012 09:00 15,1 C 8,0 C 0,0 UV-I 0,0 C 57 % 87 % 0 % 1024,6 hPa 0,0 l/m 12,8 km/h (3 Bft) 0,00 h 0,03 h 18,7 km/h (3 Bft)
12.01.2012 10:00 15,1 C 8,3 C 0,0 UV-I 0,0 C 56 % 86 % 0 % 1024,6 hPa 0,0 l/m 11,9 km/h (2 Bft) 0,00 h 0,00 h 19,8 km/h (4 Bft)
12.01.2012 11:00 15,2 C 8,7 C 0,0 UV-I 0,2 C 56 % 84 % 6 % 1023,8 hPa 0,0 l/m 12,2 km/h (2 Bft) 0,00 h 0,00 h 19,8 km/h (3 Bft)
12.01.2012 12:00 15,4 C 9,2 C 0,0 UV-I 0,2 C 55 % 82 % 5 % 1022,7 hPa 0,0 l/m 15,0 km/h (3 Bft) 0,00 h 0,00 h 22,9 km/h (4 Bft)
12.01.2012 13:00 15,2 C 8,5 C 0,0 UV-I 0,0 C 56 % 87 % 0 % 1021,8 hPa 0,0 l/m 12,6 km/h (3 Bft) 0,00 h 0,27 h 20,5 km/h (4 Bft)
12.01.2012 14:00 15,1 C 8,5 C 0,0 UV-I 0,0 C 58 % 89 % 0 % 1020,7 hPa 0,0 l/m 12,8 km/h (3 Bft) 0,00 h 0,23 h 20,0 km/h (4 Bft)
12.01.2012 15:00 15,1 C 8,9 C 0,0 UV-I 0,0 C 59 % 89 % 0 % 1020,3 hPa 0,2 l/m 11,3 km/h (2 Bft) 0,00 h 0,70 h 18,8 km/h (3 Bft)
12.01.2012 16:00 15,0 C 8,8 C 0,0 UV-I 0,0 C 60 % 90 % 0 % 1020,7 hPa 1,7 l/m 10,3 km/h (2 Bft) 0,00 h 0,70 h 18,3 km/h (3 Bft)
12.01.2012 17:00 14,8 C 8,4 C 0,0 UV-I 0,0 C 60 % 90 % 0 % 1021,6 hPa 0,0 l/m 8,7 km/h (2 Bft) 0,00 h 0,00 h 18,3 km/h (3 Bft)
12.01.2012 18:00 14,8 C 7,9 C 0,0 UV-I 0,0 C 59 % 89 % 0 % 1022,4 hPa 0,0 l/m 7,0 km/h (2 Bft) 0,00 h 0,00 h 14,4 km/h (3 Bft)
12.01.2012 19:00 14,8 C 7,2 C 0,0 UV-I 0,0 C 58 % 86 % 0 % 1023,5 hPa 0,0 l/m 6,9 km/h (2 Bft) 0,00 h 0,00 h 12,9 km/h (3 Bft)
12.01.2012 20:00 14,7 C 6,6 C 0,0 UV-I 0,0 C 57 % 85 % 0 % 1024,4 hPa 0,0 l/m 4,8 km/h (1 Bft) 0,00 h 0,00 h 8,0 km/h (2 Bft)
12.01.2012 21:00 14,6 C 6,2 C 0,0 UV-I 0,0 C 56 % 86 % 0 % 1025,0 hPa 0,0 l/m 4,8 km/h (1 Bft) 0,00 h 0,00 h 9,5 km/h (2 Bft)
12.01.2012 22:00 14,5 C 5,6 C 0,0 UV-I 0,0 C 56 % 85 % 0 % 1025,4 hPa 0,0 l/m 2,4 km/h (1 Bft) 0,00 h 0,00 h 4,4 km/h (1 Bft)
12.01.2012 23:00 14,3 C 4,8 C 0,0 UV-I 0,0 C 56 % 86 % 0 % 1025,9 hPa 0,0 l/m 1,9 km/h (1 Bft) 0,00 h 0,00 h 5,4 km/h (1 Bft)
13.01.2012 00:00 14,3 C 4,2 C 0,0 UV-I 0,0 C 55 % 87 % 0 % 1026,0 hPa 0,0 l/m 3,1 km/h (1 Bft) 0,00 h 0,00 h 7,4 km/h (2 Bft)
13.01.2012 01:00 14,2 C 3,8 C 0,0 UV-I 0,0 C 55 % 88 % 0 % 1025,8 hPa 0,0 l/m 2,5 km/h (1 Bft) 0,00 h 0,00 h 8,1 km/h (2 Bft)
13.01.2012 02:00 14,1 C 3,6 C 0,0 UV-I 0,0 C 55 % 89 % 0 % 1026,0 hPa 0,0 l/m 3,4 km/h (1 Bft) 0,00 h 0,00 h 9,3 km/h (2 Bft)
13.01.2012 03:00 14,0 C 3,7 C 0,0 UV-I 0,0 C 54 % 89 % 0 % 1025,9 hPa 0,0 l/m 4,4 km/h (1 Bft) 0,00 h 0,00 h 9,7 km/h (2 Bft)
13.01.2012 04:00 13,9 C 3,7 C 0,0 UV-I 0,0 C 54 % 89 % 0 % 1025,8 hPa 0,0 l/m 4,0 km/h (1 Bft) 0,00 h 0,00 h 7,3 km/h (2 Bft)
13.01.2012 05:00 13,8 C 4,1 C 0,0 UV-I 0,0 C 54 % 89 % 0 % 1025,9 hPa 0,1 l/m 6,8 km/h (2 Bft) 0,00 h 0,27 h 13,3 km/h (3 Bft)
13.01.2012 06:00 13,8 C 4,2 C 0,0 UV-I 0,0 C 54 % 89 % 0 % 1025,9 hPa 0,0 l/m 6,2 km/h (2 Bft) 0,00 h 0,20 h 13,9 km/h (3 Bft)
13.01.2012 07:00 13,8 C 4,1 C 0,0 UV-I 0,0 C 54 % 90 % 0 % 1025,9 hPa 0,0 l/m 6,7 km/h (2 Bft) 0,00 h 0,13 h 12,8 km/h (3 Bft)
13.01.2012 08:00 13,8 C 4,2 C 0,0 UV-I 0,0 C 54 % 90 % 0 % 1026,1 hPa 0,0 l/m 6,3 km/h (2 Bft) 0,00 h 0,13 h 12,1 km/h (2 Bft)
13.01.2012 09:00 13,8 C 3,9 C 0,0 UV-I 0,1 C 54 % 89 % 2 % 1026,8 hPa 0,0 l/m 2,9 km/h (1 Bft) 0,00 h 0,00 h 7,2 km/h (2 Bft)
13.01.2012 10:00 13,9 C 4,6 C 0,0 UV-I 2,9 C 54 % 89 % 80 % 1027,1 hPa 0,0 l/m 5,3 km/h (1 Bft) 0,87 h 0,00 h 11,2 km/h (2 Bft)
13.01.2012 11:00 14,0 C 5,8 C 0,2 UV-I 3,8 C 53 % 85 % 90 % 1027,5 hPa 0,0 l/m 7,2 km/h (2 Bft) 0,87 h 0,00 h 15,4 km/h (3 Bft)
13.01.2012 12:00 14,2 C 6,6 C 0,4 UV-I 3,9 C 52 % 79 % 93 % 1027,8 hPa 0,0 l/m 9,6 km/h (2 Bft) 0,87 h 0,00 h 17,7 km/h (3 Bft)
13.01.2012 13:00 14,5 C 6,9 C 0,1 UV-I 2,1 C 51 % 74 % 58 % 1027,8 hPa 0,0 l/m 11,0 km/h (2 Bft) 0,37 h 0,00 h 23,1 km/h (4 Bft)
13.01.2012 14:00 14,7 C 6,6 C 0,0 UV-I 0,5 C 50 % 73 % 15 % 1027,6 hPa 0,0 l/m 9,6 km/h (2 Bft) 0,17 h 0,00 h 19,4 km/h (3 Bft)
13.01.2012 15:00 15,3 C 6,7 C 0,0 UV-I 1,5 C 49 % 73 % 44 % 1027,6 hPa 0,0 l/m 7,5 km/h (2 Bft) 0,53 h 0,00 h 13,3 km/h (3 Bft)
13.01.2012 16:00 15,1 C 5,8 C 0,0 UV-I 0,0 C 49 % 74 % 0 % 1027,9 hPa 0,0 l/m 6,6 km/h (2 Bft) 0,00 h 0,13 h 11,2 km/h (2 Bft)
13.01.2012 17:00 14,6 C 5,3 C 0,0 UV-I 0,0 C 49 % 74 % 0 % 1028,4 hPa 0,0 l/m 2,2 km/h (1 Bft) 0,00 h 0,00 h 6,0 km/h (2 Bft)
13.01.2012 18:00 14,4 C 5,5 C 0,0 UV-I 0,0 C 49 % 74 % 0 % 1028,8 hPa 0,0 l/m 2,9 km/h (1 Bft) 0,00 h 0,00 h 6,5 km/h (2 Bft)
13.01.2012 19:00 14,2 C 5,2 C 0,0 UV-I 0,0 C 49 % 73 % 0 % 1029,0 hPa 0,0 l/m 4,0 km/h (1 Bft) 0,00 h 0,00 h 7,6 km/h (2 Bft)
13.01.2012 20:00 14,2 C 5,1 C 0,0 UV-I 0,0 C 49 % 74 % 0 % 1029,3 hPa 0,0 l/m 4,9 km/h (1 Bft) 0,00 h 0,00 h 9,3 km/h (2 Bft)
13.01.2012 21:00 14,1 C 4,8 C 0,0 UV-I 0,0 C 49 % 75 % 0 % 1028,9 hPa 0,0 l/m 4,3 km/h (1 Bft) 0,00 h 0,00 h 8,1 km/h (2 Bft)
13.01.2012 22:00 14,0 C 4,4 C 0,0 UV-I 0,0 C 49 % 77 % 0 % 1029,0 hPa 0,0 l/m 3,6 km/h (1 Bft) 0,00 h 0,00 h 8,1 km/h (2 Bft)
13.01.2012 23:00 14,0 C 4,3 C 0,0 UV-I 0,0 C 49 % 78 % 0 % 1028,8 hPa 0,0 l/m 3,0 km/h (1 Bft) 0,00 h 0,00 h 6,2 km/h (2 Bft)
14.01.2012 00:00 14,0 C 4,3 C 0,0 UV-I 0,0 C 49 % 79 % 0 % 1028,8 hPa 0,0 l/m 2,7 km/h (1 Bft) 0,00 h 0,00 h 5,4 km/h (1 Bft)
14.01.2012 01:00 14,1 C 4,3 C 0,0 UV-I 0,0 C 49 % 80 % 0 % 1029,0 hPa 0,0 l/m 2,6 km/h (1 Bft) 0,00 h 0,00 h 6,3 km/h (2 Bft)
14.01.2012 02:00 14,0 C 4,2 C 0,0 UV-I 0,0 C 49 % 80 % 0 % 1029,0 hPa 0,0 l/m 3,1 km/h (1 Bft) 0,00 h 0,00 h 7,3 km/h (2 Bft)
14.01.2012 03:00 14,0 C 4,0 C 0,0 UV-I 0,0 C 49 % 80 % 0 % 1029,0 hPa 0,0 l/m 2,2 km/h (1 Bft) 0,00 h 0,00 h 5,5 km/h (1 Bft)
14.01.2012 04:00 14,0 C 3,8 C 0,0 UV-I 0,0 C 49 % 80 % 0 % 1028,2 hPa 0,0 l/m 2,4 km/h (1 Bft) 0,00 h 0,00 h 4,7 km/h (1 Bft)
14.01.2012 05:00 14,0 C 3,4 C 0,0 UV-I 0,0 C 49 % 82 % 0 % 1028,2 hPa 0,0 l/m 1,2 km/h (1 Bft) 0,00 h 0,00 h 2,9 km/h (1 Bft)
14.01.2012 06:00 14,1 C 2,9 C 0,0 UV-I 0,0 C 49 % 83 % 0 % 1028,2 hPa 0,0 l/m 0,4 km/h (0 Bft) 0,00 h 0,00 h 1,7 km/h (1 Bft)
14.01.2012 07:00 14,0 C 3,1 C 0,0 UV-I 0,0 C 49 % 85 % 0 % 1028,1 hPa 0,0 l/m 1,2 km/h (1 Bft) 0,00 h 0,00 h 3,8 km/h (1 Bft)
14.01.2012 08:00 13,9 C 3,2 C 0,0 UV-I 0,0 C 49 % 85 % 0 % 1028,0 hPa 0,0 l/m 1,0 km/h (0 Bft) 0,00 h 0,00 h 3,2 km/h (1 Bft)
14.01.2012 09:00 14,0 C 3,3 C 0,0 UV-I 0,0 C 49 % 85 % 1 % 1028,2 hPa 0,0 l/m 1,7 km/h (1 Bft) 0,00 h 0,00 h 6,1 km/h (2 Bft)
14.01.2012 10:00 14,0 C 3,8 C 0,0 UV-I 0,8 C 49 % 84 % 22 % 1028,6 hPa 0,0 l/m 1,0 km/h (0 Bft) 0,13 h 0,00 h 3,3 km/h (1 Bft)
14.01.2012 11:00 14,2 C 5,1 C 0,3 UV-I 5,2 C 49 % 82 % 100 % 1028,5 hPa 0,0 l/m 4,6 km/h (1 Bft) 1,00 h 0,00 h 9,1 km/h (2 Bft)
14.01.2012 12:00 14,4 C 6,2 C 0,5 UV-I 4,0 C 49 % 77 % 92 % 1027,9 hPa 0,0 l/m 8,5 km/h (2 Bft) 0,90 h 0,00 h 13,1 km/h (3 Bft)
14.01.2012 13:00 14,7 C 6,7 C 0,2 UV-I 3,3 C 49 % 74 % 88 % 1028,0 hPa 0,0 l/m 9,9 km/h (2 Bft) 0,73 h 0,00 h 15,9 km/h (3 Bft)
14.01.2012 14:00 15,0 C 6,5 C 0,0 UV-I 0,8 C 48 % 73 % 23 % 1027,6 hPa 0,0 l/m 7,4 km/h (2 Bft) 0,00 h 0,00 h 11,6 km/h (2 Bft)
14.01.2012 15:00 14,9 C 6,3 C 0,0 UV-I 0,1 C 48 % 74 % 2 % 1027,6 hPa 0,0 l/m 9,9 km/h (2 Bft) 0,00 h 0,00 h 16,4 km/h (3 Bft)
14.01.2012 16:00 14,7 C 6,0 C 0,0 UV-I 0,0 C 49 % 76 % 0 % 1027,9 hPa 0,0 l/m 5,1 km/h (1 Bft) 0,00 h 0,00 h 8,1 km/h (2 Bft)
14.01.2012 17:00 14,5 C 5,5 C 0,0 UV-I 0,0 C 49 % 78 % 0 % 1027,8 hPa 0,0 l/m 0,3 km/h (0 Bft) 0,00 h 0,00 h 0,5 km/h (0 Bft)
14.01.2012 18:00 14,4 C 4,9 C 0,0 UV-I 0,0 C 50 % 79 % 0 % 1027,5 hPa 0,0 l/m 0,0 km/h (0 Bft) 0,00 h 0,00 h 0,0 km/h (0 Bft)
14.01.2012 19:00 14,3 C 3,7 C 0,0 UV-I 0,0 C 50 % 81 % 0 % 1027,4 hPa 0,0 l/m 0,2 km/h (0 Bft) 0,00 h 0,00 h 0,4 km/h (0 Bft)
14.01.2012 20:00 14,2 C 2,5 C 0,0 UV-I 0,0 C 50 % 83 % 0 % 1027,7 hPa 0,0 l/m 0,0 km/h (0 Bft) 0,00 h 0,00 h 0,0 km/h (0 Bft)
14.01.2012 21:00 14,0 C 1,8 C 0,0 UV-I 0,0 C 50 % 85 % 0 % 1027,6 hPa 0,0 l/m 0,0 km/h (0 Bft) 0,00 h 0,00 h 0,0 km/h (0 Bft)
14.01.2012 22:00 14,0 C 1,4 C 0,0 UV-I 0,0 C 49 % 87 % 0 % 1027,4 hPa 0,0 l/m 0,0 km/h (0 Bft) 0,00 h 0,00 h 0,0 km/h (0 Bft)
14.01.2012 23:00 13,9 C 1,5 C 0,0 UV-I 0,0 C 49 % 88 % 0 % 1027,2 hPa 0,0 l/m 0,0 km/h (0 Bft) 0,00 h 0,00 h 0,0 km/h (0 Bft)
15.01.2012 00:00 13,9 C 1,4 C 0,0 UV-I 0,0 C 49 % 88 % 0 % 1026,7 hPa 0,0 l/m 0,0 km/h (0 Bft) 0,00 h 0,00 h 0,0 km/h (0 Bft)
15.01.2012 01:00 13,9 C 1,1 C 0,0 UV-I 0,0 C 49 % 89 % 0 % 1026,7 hPa 0,0 l/m 0,0 km/h (0 Bft) 0,00 h 0,00 h 0,0 km/h (0 Bft)
15.01.2012 02:00 13,9 C 1,1 C 0,0 UV-I 0,0 C 49 % 90 % 0 % 1026,9 hPa 0,0 l/m 0,0 km/h (0 Bft) 0,00 h 0,00 h 0,0 km/h (0 Bft)
15.01.2012 03:00 13,9 C 1,4 C 0,0 UV-I 0,0 C 49 % 90 % 0 % 1026,7 hPa 0,0 l/m 0,0 km/h (0 Bft) 0,00 h 0,00 h 0,0 km/h (0 Bft)
15.01.2012 04:00 13,9 C 1,6 C 0,0 UV-I 0,0 C 50 % 90 % 0 % 1026,5 hPa 0,0 l/m 0,0 km/h (0 Bft) 0,00 h 0,00 h 0,0 km/h (0 Bft)
15.01.2012 05:00 13,9 C 1,7 C 0,0 UV-I 0,0 C 50 % 90 % 0 % 1026,1 hPa 0,0 l/m 0,0 km/h (0 Bft) 0,00 h 0,00 h 0,0 km/h (0 Bft)
15.01.2012 06:00 13,9 C 1,6 C 0,0 UV-I 0,0 C 50 % 90 % 0 % 1026,2 hPa 0,0 l/m 0,0 km/h (0 Bft) 0,00 h 0,00 h 0,0 km/h (0 Bft)
15.01.2012 07:00 13,8 C 1,5 C 0,0 UV-I 0,0 C 50 % 91 % 0 % 1026,3 hPa 0,0 l/m 0,0 km/h (0 Bft) 0,00 h 0,10 h 0,0 km/h (0 Bft)
15.01.2012 08:00 13,8 C 1,6 C 0,0 UV-I 0,0 C 50 % 91 % 0 % 1026,6 hPa 0,0 l/m 0,0 km/h (0 Bft) 0,00 h 0,07 h 0,0 km/h (0 Bft)
15.01.2012 09:00 13,8 C 1,6 C 0,0 UV-I 0,0 C 50 % 92 % 0 % 1026,7 hPa 0,0 l/m 0,0 km/h (0 Bft) 0,00 h 0,07 h 0,0 km/h (0 Bft)
15.01.2012 10:00 13,8 C 2,2 C 0,0 UV-I 4,4 C 50 % 92 % 84 % 1026,9 hPa 0,0 l/m 0,3 km/h (0 Bft) 0,83 h 0,03 h 0,6 km/h (0 Bft)
15.01.2012 11:00 13,9 C 3,7 C 0,0 UV-I 3,9 C 50 % 91 % 86 % 1026,9 hPa 0,0 l/m 2,5 km/h (1 Bft) 0,77 h 0,07 h 5,8 km/h (2 Bft)
15.01.2012 12:00 14,1 C 4,9 C 0,3 UV-I 5,5 C 50 % 87 % 100 % 1026,6 hPa 0,0 l/m 3,1 km/h (1 Bft) 1,00 h 0,00 h 6,2 km/h (2 Bft)
15.01.2012 13:00 14,5 C 5,7 C 0,5 UV-I 5,9 C 50 % 81 % 100 % 1026,1 hPa 0,0 l/m 3,5 km/h (1 Bft) 1,00 h 0,00 h 8,0 km/h (2 Bft)
15.01.2012 14:00 15,8 C 6,4 C 0,3 UV-I 5,4 C 47 % 72 % 100 % 1026,5 hPa 0,0 l/m 3,9 km/h (1 Bft) 1,00 h 0,00 h 7,4 km/h (2 Bft)
15.01.2012 15:00 16,6 C 5,8 C 0,0 UV-I 1,9 C 44 % 68 % 45 % 1026,6 hPa 0,0 l/m 3,7 km/h (1 Bft) 0,47 h 0,00 h 6,8 km/h (2 Bft)
15.01.2012 16:00 15,7 C 4,6 C 0,0 UV-I 0,0 C 45 % 71 % 0 % 1025,9 hPa 0,0 l/m 0,4 km/h (0 Bft) 0,00 h 0,00 h 1,6 km/h (1 Bft)
15.01.2012 17:00 14,9 C 2,9 C 0,0 UV-I 0,0 C 46 % 76 % 0 % 1025,8 hPa 0,0 l/m 0,1 km/h (0 Bft) 0,00 h 0,10 h 0,1 km/h (0 Bft)
15.01.2012 18:00 14,3 C 1,7 C 0,0 UV-I 0,0 C 47 % 80 % 0 % 1025,7 hPa 0,0 l/m 0,1 km/h (0 Bft) 0,00 h 0,03 h 0,4 km/h (0 Bft)
15.01.2012 19:00 14,0 C 1,0 C 0,0 UV-I 0,0 C 47 % 84 % 0 % 1025,9 hPa 0,0 l/m 0,1 km/h (0 Bft) 0,00 h 0,07 h 0,7 km/h (0 Bft)
15.01.2012 20:00 13,8 C 0,2 C 0,0 UV-I 0,0 C 47 % 85 % 0 % 1026,1 hPa 0,0 l/m 0,0 km/h (0 Bft) 0,00 h 0,13 h 0,0 km/h (0 Bft)
15.01.2012 21:00 13,7 C -0,6 C 0,0 UV-I 0,0 C 47 % 86 % 0 % 1026,3 hPa 0,0 l/m 0,0 km/h (0 Bft) 0,00 h 0,13 h 0,0 km/h (0 Bft)
15.01.2012 22:00 13,6 C -1,1 C 0,0 UV-I 0,0 C 47 % 88 % 0 % 1026,3 hPa 0,0 l/m 0,0 km/h (0 Bft) 0,00 h 0,03 h 0,0 km/h (0 Bft)
15.01.2012 23:00 13,5 C -1,6 C 0,0 UV-I 0,0 C 47 % 89 % 0 % 1026,2 hPa 0,1 l/m 0,0 km/h (0 Bft) 0,00 h 0,03 h 0,0 km/h (0 Bft)
Min-Datum _ 15.01.12 15.01.12 09.01.12 09.01.12 15.01.12 15.01.12 09.01.12 12.01.12 - 10.01.12 - - 09.01.12
_ Min-Zeit 23:10 23:28 00:00 00:00 15:10 14:58 00:00 15:04 - 04:34 - - 00:42
Minimum _ 13,4 C -1,7 C 0,0 UV-I 0,0 C 44 % 66 % 0 % 1020,2 hPa - 0,0 km/h (0 Bft) - - 0,0 km/h (0 Bft)
Max-Datum _ 15.01.12 11.01.12 14.01.12 15.01.12 09.01.12 09.01.12 10.01.12 10.01.12 12.01.12 12.01.12 10.01.12 09.01.12 12.01.12
_ Max-Zeit 15:10 13:02 12:08 10:56 13:42 08:12 11:40 11:04 16:00 12:50 11:36 04:12 15:02
Maximum _ 16,8 C 10,1 C 0,6 UV-I 6,4 C 62 % 94 % 100 % 1034,2 hPa 1,7 l/m 17,3 km/h
NW (3 Bft)
0,03 h 0,03 h 49,4 km/h
W-SW (6 Bft)
Durchschnitt _ 14,6 C 6,3 C 0,0 UV-I 0,4 C 55 % 85 % 9 % 1028,5 hPa #4,0 l/m 4,0 km/h (1 Bft) #13:58 h #7:30 h 7,9 km/h (2 Bft)
© 2012 W. Hausmann